Time;durP1;ratioP1;P1;durP2;ratioP2;P2;SDS_P1;SDS_P2;PMS_P1;PMS_P2;Temp;Humidity;BMP_temperature;BMP_pressure;BME280_temperature;BME280_humidity;BME280_pressure;Samples;Min_cycle;Max_cycle;Signal;HPM_P1;HPM_P2
2024/04/19 00:01:20;;;;;;;1.83;1.70;;;;;;;32.06;36.89;99793.34;7391319;19;20011;-78
2024/04/19 00:03:47;;;;;;;2.20;1.50;;;;;;;32.12;36.66;99782.16;7389317;19;20043;-78
2024/04/19 00:06:13;;;;;;;1.98;1.83;;;;;;;31.83;36.88;99781.06;7393605;19;20646;-78
2024/04/19 00:08:40;;;;;;;2.40;1.35;;;;;;;31.64;37.49;99787.06;7390320;19;20035;-78
2024/04/19 00:11:06;;;;;;;1.30;1.17;;;;;;;31.88;37.09;99765.53;7389033;19;20051;-78
2024/04/19 00:13:32;;;;;;;3.15;1.42;;;;;;;32.06;36.70;99770.28;7391163;19;20022;-78
2024/04/19 00:15:58;;;;;;;2.78;1.40;;;;;;;31.94;36.89;99774.53;7391515;19;20395;-78
2024/04/19 00:18:26;;;;;;;2.10;1.83;;;;;;;31.69;37.02;99769.41;7394020;19;20015;-78
2024/04/19 00:20:56;;;;;;;5.03;2.38;;;;;;;31.50;37.04;99771.78;7391810;19;20052;-78
2024/04/19 00:23:23;;;;;;;2.90;1.92;;;;;;;31.55;37.06;99765.66;7389243;19;20120;-78
2024/04/19 00:25:49;;;;;;;6.18;1.88;;;;;;;31.64;36.78;99776.28;7390953;19;20018;-78
2024/04/19 00:28:15;;;;;;;1.50;1.40;;;;;;;31.93;36.41;99770.91;7390740;19;20066;-78
2024/04/19 00:30:41;;;;;;;1.55;1.23;;;;;;;31.97;36.73;99776.16;7392699;19;20025;-78
2024/04/19 00:33:08;;;;;;;2.50;1.42;;;;;;;31.86;36.92;99771.16;7390965;19;20555;-78
2024/04/19 00:35:34;;;;;;;3.28;1.60;;;;;;;31.77;36.53;99772.78;7389207;19;20077;-78
2024/04/19 00:38:01;;;;;;;1.95;1.45;;;;;;;32.08;36.14;99766.75;7387838;19;20053;-78
2024/04/19 00:40:33;;;;;;;7.95;1.63;;;;;;;31.85;36.46;99772.53;7390647;19;20029;-78
2024/04/19 00:42:59;;;;;;;2.55;1.70;;;;;;;31.58;36.69;99766.53;7392727;19;20026;-78
2024/04/19 00:45:36;;;;;;;2.05;1.48;;;;;;;31.80;36.77;99765.00;7390194;19;20033;-78
2024/04/19 00:48:09;;;;;;;1.80;1.40;;;;;;;31.51;36.80;99779.81;7392686;19;20412;-78
2024/04/19 00:50:55;;;;;;;;;;;;;;;30.61;37.50;99771.75;7388629;19;20469;-78
2024/04/19 00:53:26;;;;;;;1.77;1.52;;;;;;;30.68;37.32;99776.53;7390516;19;19922;-78
2024/04/19 00:55:56;;;;;;;13.68;2.03;;;;;;;30.88;37.31;99774.25;7388311;19;20015;-78
2024/04/19 00:58:27;;;;;;;6.90;2.03;;;;;;;30.93;37.16;99773.91;7387806;19;20337;-78
2024/04/19 01:00:54;;;;;;;3.05;1.25;;;;;;;30.70;37.85;99779.53;7389496;19;20437;-78
2024/04/19 01:03:20;;;;;;;3.42;1.20;;;;;;;29.79;38.46;99775.47;7387453;19;20010;-78
2024/04/19 01:05:46;;;;;;;1.45;1.33;;;;;;;29.52;38.97;99787.19;7392657;19;20482;-78
2024/04/19 01:08:29;;;;;;;0.43;0.38;;;;;;;29.85;38.94;99768.03;7387949;19;20051;-78
2024/04/19 01:10:55;;;;;;;0.45;0.43;;;;;;;29.78;38.60;99768.22;7387579;19;20015;-78
2024/04/19 01:13:21;;;;;;;2.47;1.33;;;;;;;29.56;38.88;99770.25;7386763;19;20018;-78
2024/04/19 01:15:47;;;;;;;0.80;0.80;;;;;;;29.66;39.23;99753.00;7384879;19;20802;-78
2024/04/19 01:18:13;;;;;;;3.08;1.27;;;;;;;29.34;40.21;99770.81;7390521;19;20011;-79
2024/04/19 01:20:40;;;;;;;0.73;0.73;;;;;;;29.78;39.15;99766.09;7389083;19;20039;-78
2024/04/19 01:23:07;;;;;;;1.63;1.23;;;;;;;29.45;39.43;99776.66;7387986;19;20509;-78
2024/04/19 01:25:37;;;;;;;1.00;0.77;;;;;;;29.20;39.48;99776.28;7386944;19;20049;-78
2024/04/19 01:28:11;;;;;;;6.82;0.68;;;;;;;29.36;39.69;99773.81;7387145;19;20074;-78
2024/04/19 01:30:40;;;;;;;0.93;0.90;;;;;;;29.06;40.02;99772.38;7391243;19;20043;-78
2024/04/19 01:33:06;;;;;;;0.32;0.32;;;;;;;29.18;40.05;99770.41;7388056;19;20014;-78
2024/04/19 01:35:32;;;;;;;1.45;0.90;;;;;;;29.05;40.05;99768.00;7387803;19;20015;-78
2024/04/19 01:37:58;;;;;;;5.97;1.05;;;;;;;28.96;40.32;99768.75;7388040;19;20365;-78
2024/04/19 01:40:24;;;;;;;0.50;0.50;;;;;;;28.92;40.44;99754.88;7388347;19;20022;-79
2024/04/19 01:42:50;;;;;;;1.30;0.75;;;;;;;28.64;41.08;99760.66;7388721;19;20022;-79
2024/04/19 01:45:16;;;;;;;0.65;0.20;;;;;;;28.48;41.17;99757.31;7388253;19;20018;-78
2024/04/19 01:47:43;;;;;;;0.82;0.77;;;;;;;28.49;41.07;99759.59;7390105;19;20049;-79
2024/04/19 01:50:09;;;;;;;7.32;1.45;;;;;;;28.58;41.18;99754.47;7386111;19;20537;-78
2024/04/19 01:52:35;;;;;;;0.50;0.50;;;;;;;29.05;40.52;99745.03;7387127;19;20502;-78
2024/04/19 01:55:02;;;;;;;2.53;1.73;;;;;;;28.50;41.51;99748.88;7388451;19;20074;-78
2024/04/19 01:57:29;;;;;;;3.20;0.93;;;;;;;28.60;41.41;99740.28;7388196;19;20021;-78
2024/04/19 01:59:56;;;;;;;8.65;1.50;;;;;;;28.53;41.50;99745.56;7388448;19;20535;-78
2024/04/19 02:02:22;;;;;;;2.90;0.73;;;;;;;28.52;41.50;99757.63;7386927;19;20034;-78
2024/04/19 02:04:49;;;;;;;1.00;0.70;;;;;;;28.49;41.61;99748.13;7392072;19;20457;-78
2024/04/19 02:07:15;;;;;;;1.38;1.33;;;;;;;28.56;41.40;99745.69;7388520;19;20029;-78
2024/04/19 02:09:41;;;;;;;5.45;2.50;;;;;;;28.58;41.52;99748.75;7387482;19;20755;-78
2024/04/19 02:12:07;;;;;;;0.50;0.45;;;;;;;28.47;41.95;99744.34;7385905;19;20030;-78
2024/04/19 02:14:34;;;;;;;4.15;2.45;;;;;;;29.30;40.62;99742.59;7385442;19;20025;-78
2024/04/19 02:17:00;;;;;;;5.10;0.88;;;;;;;28.95;40.63;99735.72;7389026;19;20081;-78
2024/04/19 02:19:29;;;;;;;2.30;1.13;;;;;;;29.10;40.79;99741.88;7385806;19;20011;-77
2024/04/19 02:21:55;;;;;;;1.17;1.08;;;;;;;29.29;40.55;99740.31;7390903;19;20022;-78
2024/04/19 02:24:21;;;;;;;2.58;1.42;;;;;;;30.54;39.03;99743.97;7387374;19;20031;-78
2024/04/19 02:26:52;;;;;;;1.20;0.98;;;;;;;30.43;38.76;99728.16;7386526;19;20026;-78
2024/04/19 02:32:03;;;;;;;1.55;1.23;;;;;;;29.72;39.14;99734.06;7391306;19;20018;-78
2024/04/19 02:34:30;;;;;;;1.08;1.05;;;;;;;29.77;39.49;99726.53;7392469;19;20372;-78
2024/04/19 02:36:57;;;;;;;0.85;0.85;;;;;;;29.84;39.45;99731.31;7392059;19;20022;-78
2024/04/19 02:39:23;;;;;;;0.65;0.65;;;;;;;29.62;39.39;99724.78;7391323;19;20027;-78
2024/04/19 02:41:49;;;;;;;0.45;0.45;;;;;;;29.66;39.55;99727.91;7394796;19;20018;-79
2024/04/19 02:44:15;;;;;;;5.15;0.40;;;;;;;29.61;39.32;99734.72;7394508;19;20022;-78
2024/04/19 02:46:41;;;;;;;0.30;0.30;;;;;;;29.58;39.60;99721.63;7395820;19;20072;-78
2024/04/19 02:49:07;;;;;;;0.80;0.80;;;;;;;29.26;39.76;99718.59;7390621;19;20010;-78
2024/04/19 02:51:33;;;;;;;0.38;0.32;;;;;;;29.00;39.83;99732.53;7389398;19;20027;-78
2024/04/19 02:53:59;;;;;;;0.93;0.65;;;;;;;28.82;40.56;99719.00;7391990;19;20026;-78
2024/04/19 02:56:25;;;;;;;1.00;0.90;;;;;;;28.91;40.45;99703.91;7392473;19;20015;-78
2024/04/19 02:58:52;;;;;;;1.92;1.50;;;;;;;28.86;40.36;99727.88;7389612;19;20022;-78
2024/04/19 03:01:18;;;;;;;5.38;1.63;;;;;;;28.87;39.88;99723.69;7394067;19;20022;-78
2024/04/19 03:03:44;;;;;;;0.63;0.63;;;;;;;28.87;39.98;99732.28;7393073;19;20030;-78
2024/04/19 03:06:10;;;;;;;0.40;0.40;;;;;;;28.47;40.64;99732.91;7393720;19;20481;-78
2024/04/19 03:08:37;;;;;;;0.73;0.60;;;;;;;28.89;40.23;99723.81;7391125;19;20035;-79
2024/04/19 03:11:06;;;;;;;0.63;0.63;;;;;;;28.64;40.34;99723.41;7392229;19;20035;-79
2024/04/19 03:13:32;;;;;;;0.60;0.60;;;;;;;28.70;39.95;99723.84;7391976;19;20026;-79
2024/04/19 03:16:03;;;;;;;6.97;0.93;;;;;;;28.51;40.43;99713.88;7392386;19;20110;-78
2024/04/19 03:18:42;;;;;;;0.40;0.32;;;;;;;28.88;40.24;99722.28;7391828;19;20014;-78
2024/04/19 03:21:08;;;;;;;0.70;0.70;;;;;;;29.01;39.94;99730.41;7395100;19;20022;-78
2024/04/19 03:23:34;;;;;;;0.20;0.20;;;;;;;28.97;40.13;99721.53;7392827;19;20048;-78
2024/04/19 03:26:00;;;;;;;1.77;0.57;;;;;;;28.60;40.42;99723.09;7390125;19;20014;-78
2024/04/19 03:28:27;;;;;;;0.30;0.13;;;;;;;28.75;40.38;99723.53;7390976;19;20434;-78
2024/04/19 03:30:53;;;;;;;5.93;0.50;;;;;;;28.64;41.01;99726.25;7390739;19;20010;-78
2024/04/19 03:33:19;;;;;;;6.60;0.68;;;;;;;29.27;39.67;99715.13;7392810;19;20021;-78
2024/04/19 03:35:46;;;;;;;0.20;0.20;;;;;;;29.07;40.11;99713.63;7392439;19;20030;-78
2024/04/19 03:38:14;;;;;;;2.85;1.55;;;;;;;28.60;40.49;99718.13;7391028;19;20030;-79
2024/04/19 03:40:56;;;;;;;0.90;0.88;;;;;;;28.45;40.24;99715.56;7392455;19;20022;-78
2024/04/19 03:43:23;;;;;;;1.40;0.52;;;;;;;28.46;40.77;99714.94;7391047;19;20034;-79
2024/04/19 03:45:49;;;;;;;0.75;0.75;;;;;;;28.45;40.86;99735.59;7392140;19;20014;-79
2024/04/19 03:48:16;;;;;;;0.28;0.17;;;;;;;28.96;40.67;99722.88;7394910;19;20014;-79
2024/04/19 03:50:46;;;;;;;0.30;0.30;;;;;;;28.97;40.26;99730.88;7389050;19;20031;-79
2024/04/19 03:53:12;;;;;;;0.70;0.47;;;;;;;29.11;40.11;99736.88;7393139;19;20010;-79
2024/04/19 03:55:38;;;;;;;0.20;0.20;;;;;;;29.30;40.07;99725.38;7392295;19;20032;-78
2024/04/19 03:58:04;;;;;;;2.35;0.47;;;;;;;29.33;39.54;99732.75;7393538;19;20014;-78
2024/04/19 04:00:30;;;;;;;2.13;0.60;;;;;;;29.32;39.85;99719.78;7391194;19;20022;-78
2024/04/19 04:02:57;;;;;;;10.60;1.27;;;;;;;29.05;39.41;99710.63;7389311;19;20043;-78
2024/04/19 04:05:23;;;;;;;0.57;0.57;;;;;;;28.74;40.22;99713.41;7393539;19;20011;-78
2024/04/19 04:07:49;;;;;;;0.55;0.52;;;;;;;28.69;40.24;99708.00;7389152;19;20015;-78
2024/04/19 04:10:15;;;;;;;0.75;0.38;;;;;;;28.23;40.19;99708.94;7390801;19;20094;-78
2024/04/19 04:12:42;;;;;;;1.10;0.55;;;;;;;27.93;40.97;99709.47;7391853;19;20402;-79
2024/04/19 04:15:08;;;;;;;1.80;0.55;;;;;;;28.04;41.06;99703.19;7391401;19;20039;-78
2024/04/19 04:17:34;;;;;;;0.20;0.17;;;;;;;27.21;42.19;99706.66;7392814;19;20053;-78
2024/04/19 04:20:00;;;;;;;2.65;0.57;;;;;;;28.18;41.40;99707.09;7391168;19;20014;-79
2024/04/19 04:22:26;;;;;;;0.40;0.40;;;;;;;28.39;40.78;99692.91;7393789;19;20046;-78
2024/04/19 04:24:52;;;;;;;1.13;0.45;;;;;;;28.54;40.72;99698.34;7388170;19;20078;-78
2024/04/19 04:27:18;;;;;;;0.52;0.52;;;;;;;28.76;40.44;99692.75;7391023;19;20014;-78
2024/04/19 04:29:44;;;;;;;0.60;0.40;;;;;;;29.03;40.33;99687.53;7389341;19;20010;-78
2024/04/19 04:32:10;;;;;;;4.22;1.40;;;;;;;28.89;40.21;99695.88;7391422;19;20019;-78
2024/04/19 04:34:37;;;;;;;4.88;0.63;;;;;;;29.00;40.23;99685.91;7390508;19;20018;-78
2024/04/19 04:37:03;;;;;;;0.20;0.20;;;;;;;28.99;39.82;99684.38;7391735;19;20018;-78
2024/04/19 04:39:29;;;;;;;10.88;2.40;;;;;;;29.03;39.57;99690.41;7388421;19;20453;-79
2024/04/19 04:41:55;;;;;;;4.15;1.00;;;;;;;29.49;39.50;99690.84;7389963;19;20010;-78
2024/04/19 04:44:22;;;;;;;2.08;1.23;;;;;;;29.58;39.67;99655.59;7391263;19;20018;-78
2024/04/19 04:46:48;;;;;;;0.30;0.30;;;;;;;29.45;39.40;99658.25;7390158;19;20459;-78
2024/04/19 04:49:14;;;;;;;0.43;0.43;;;;;;;29.18;39.32;99670.75;7387518;19;20011;-79
2024/04/19 04:51:41;;;;;;;0.30;0.30;;;;;;;29.16;39.55;99658.38;7385819;19;20022;-79
2024/04/19 04:54:07;;;;;;;1.67;1.13;;;;;;;28.94;39.99;99671.13;7386479;19;20053;-78
2024/04/19 04:56:33;;;;;;;0.43;0.20;;;;;;;29.43;39.12;99676.09;7385978;19;20006;-78
2024/04/19 04:58:59;;;;;;;5.80;0.55;;;;;;;29.08;39.57;99669.25;7386835;19;20023;-78
2024/04/19 05:01:25;;;;;;;2.58;0.50;;;;;;;29.27;39.82;99680.69;7389625;19;20023;-78
2024/04/19 05:03:51;;;;;;;0.32;0.32;;;;;;;29.02;39.74;99678.19;7389551;19;20007;-78
2024/04/19 05:06:17;;;;;;;1.17;0.40;;;;;;;29.07;39.35;99676.34;7388476;19;20030;-78
2024/04/19 05:08:43;;;;;;;0.30;0.28;;;;;;;29.10;39.36;99675.16;7387306;19;20648;-78
2024/04/19 05:11:10;;;;;;;0.30;0.20;;;;;;;29.65;39.03;99677.59;7385798;19;20022;-78
2024/04/19 05:13:36;;;;;;;2.30;0.43;;;;;;;29.79;38.84;99684.34;7388358;19;20624;-78
2024/04/19 05:16:02;;;;;;;0.43;0.22;;;;;;;29.99;38.40;99668.47;7389073;19;20099;-78
2024/04/19 05:18:29;;;;;;;6.22;0.47;;;;;;;29.73;38.46;99674.53;7391324;19;20030;-78
2024/04/19 05:20:55;;;;;;;0.30;0.30;;;;;;;29.05;39.19;99679.06;7390272;19;20053;-78
2024/04/19 05:23:21;;;;;;;0.20;0.20;;;;;;;28.78;39.88;99676.47;7387861;19;20025;-78
2024/04/19 05:25:50;;;;;;;0.43;0.35;;;;;;;28.65;40.07;99681.91;7388038;19;20078;-78
2024/04/19 05:28:17;;;;;;;0.40;0.40;;;;;;;28.40;40.40;99677.25;7389943;19;20018;-78
2024/04/19 05:30:43;;;;;;;0.90;0.73;;;;;;;28.29;40.27;99672.13;7387547;19;20045;-78
2024/04/19 05:33:09;;;;;;;0.40;0.40;;;;;;;28.43;40.40;99678.91;7388750;19;20029;-78
2024/04/19 05:35:36;;;;;;;0.45;0.45;;;;;;;28.32;40.44;99653.75;7387060;19;20018;-79
2024/04/19 05:38:02;;;;;;;0.55;0.40;;;;;;;28.40;40.45;99665.78;7387540;19;20347;-79
2024/04/19 05:40:28;;;;;;;7.30;0.68;;;;;;;28.38;40.75;99673.47;7388180;19;20079;-79
2024/04/19 05:42:54;;;;;;;0.70;0.70;;;;;;;28.41;40.50;99667.28;7387855;19;20010;-79
2024/04/19 05:45:20;;;;;;;1.05;0.52;;;;;;;28.39;40.76;99669.28;7387309;19;20720;-79
2024/04/19 05:47:46;;;;;;;0.75;0.75;;;;;;;28.28;40.91;99681.34;7391707;19;20011;-79
2024/04/19 05:50:13;;;;;;;4.20;0.80;;;;;;;28.16;41.01;99686.91;7388286;19;20025;-79
2024/04/19 05:52:40;;;;;;;1.45;0.70;;;;;;;27.15;42.57;99663.31;7388071;19;20014;-78
2024/04/19 05:55:07;;;;;;;3.22;0.65;;;;;;;26.93;43.17;99685.19;7387331;19;20057;-79
2024/04/19 05:57:34;;;;;;;0.55;0.55;;;;;;;26.77;43.01;99678.91;7388289;19;20112;-78
2024/04/19 06:00:02;;;;;;;1.33;0.60;;;;;;;26.58;43.58;99673.06;7387563;19;20489;-79
2024/04/19 06:02:39;;;;;;;2.05;1.20;;;;;;;26.98;43.51;99679.16;7393494;19;20035;-79
2024/04/19 06:05:05;;;;;;;0.20;0.20;;;;;;;27.53;42.60;99672.03;7395061;19;20608;-78
2024/04/19 06:07:31;;;;;;;0.57;0.57;;;;;;;27.58;42.56;99677.47;7394641;19;20025;-78
2024/04/19 06:09:57;;;;;;;2.47;0.65;;;;;;;27.48;42.69;99670.22;7394849;19;20098;-78
2024/04/19 06:12:23;;;;;;;0.40;0.30;;;;;;;27.69;42.63;99682.63;7395748;19;20021;-78
2024/04/19 06:14:49;;;;;;;2.22;0.63;;;;;;;27.72;42.83;99678.53;7395749;19;20023;-78
2024/04/19 06:17:16;;;;;;;0.73;0.57;;;;;;;27.33;43.58;99693.34;7397916;19;20014;-78
2024/04/19 06:19:42;;;;;;;1.95;0.70;;;;;;;27.72;43.06;99700.72;7392510;19;20010;-79
2024/04/19 06:22:08;;;;;;;0.20;0.15;;;;;;;28.19;42.67;99688.56;7395951;19;20046;-78
2024/04/19 06:24:35;;;;;;;0.40;0.40;;;;;;;27.80;42.98;99712.75;7394591;19;20018;-79
2024/04/19 06:27:01;;;;;;;0.55;0.55;;;;;;;27.15;43.54;99706.19;7390642;19;20075;-81
2024/04/19 06:29:27;;;;;;;1.85;0.35;;;;;;;27.37;43.29;99716.56;7389763;19;20361;-81
2024/04/19 06:31:53;;;;;;;4.30;0.73;;;;;;;27.44;43.14;99709.97;7389421;19;20015;-81
2024/04/19 06:34:19;;;;;;;0.10;0.10;;;;;;;27.47;43.85;99718.09;7391329;19;20164;-80
2024/04/19 06:36:45;;;;;;;0.90;0.43;;;;;;;27.76;43.41;99713.19;7390733;19;20015;-81
2024/04/19 06:39:23;;;;;;;0.32;0.20;;;;;;;27.51;43.24;99729.84;7390458;19;20006;-81
2024/04/19 06:41:49;;;;;;;0.10;0.10;;;;;;;27.46;42.71;99730.16;7394283;19;20030;-80
2024/04/19 06:44:15;;;;;;;0.20;0.20;;;;;;;27.16;42.97;99736.31;7392665;19;20360;-81
2024/04/19 06:46:41;;;;;;;0.10;0.10;;;;;;;27.15;43.03;99729.06;7393926;19;20473;-81
2024/04/19 06:49:07;;;;;;;0.22;0.22;;;;;;;27.01;43.01;99729.44;7391126;19;20014;-81
2024/04/19 06:51:33;;;;;;;2.25;0.30;;;;;;;27.03;42.83;99717.41;7389654;19;20082;-81
2024/04/19 06:54:00;;;;;;;0.20;0.20;;;;;;;27.09;43.11;99714.31;7396058;19;20035;-81
2024/04/19 06:56:26;;;;;;;0.32;0.32;;;;;;;26.77;43.68;99730.34;7391041;19;20046;-80
2024/04/19 06:58:52;;;;;;;0.65;0.30;;;;;;;26.81;43.13;99722.09;7389251;19;20110;-80
2024/04/19 07:01:18;;;;;;;0.20;0.20;;;;;;;27.05;42.94;99721.19;7390896;19;20015;-80
2024/04/19 07:03:44;;;;;;;0.43;0.43;;;;;;;27.04;43.29;99731.13;7391652;19;20021;-80
2024/04/19 07:06:11;;;;;;;0.22;0.22;;;;;;;26.91;43.21;99705.78;7391986;19;20361;-80
2024/04/19 07:08:39;;;;;;;0.17;0.17;;;;;;;26.98;43.37;99732.75;7390514;19;20023;-81
2024/04/19 07:11:05;;;;;;;1.95;0.50;;;;;;;27.23;43.16;99727.59;7391956;19;20025;-80
2024/04/19 07:13:32;;;;;;;0.38;0.38;;;;;;;27.26;42.95;99734.25;7389978;19;20147;-80
2024/04/19 07:15:58;;;;;;;0.10;0.10;;;;;;;27.47;42.73;99738.13;7393393;19;20018;-80
2024/04/19 07:18:25;;;;;;;0.95;0.28;;;;;;;27.45;42.70;99742.94;7395867;19;20014;-80
2024/04/19 07:20:52;;;;;;;0.43;0.43;;;;;;;27.49;42.68;99723.22;7390327;19;20077;-80
2024/04/19 07:23:22;;;;;;;0.30;0.30;;;;;;;27.51;43.08;99727.00;7389866;19;20082;-80
2024/04/19 07:25:48;;;;;;;0.30;0.20;;;;;;;27.61;42.88;99735.63;7397036;19;20063;-80
2024/04/19 07:28:15;;;;;;;0.68;0.28;;;;;;;27.68;42.65;99734.72;7389696;19;20018;-80
2024/04/19 07:30:43;;;;;;;0.20;0.20;;;;;;;28.17;42.54;99734.25;7389427;19;20206;-81
2024/04/19 07:33:09;;;;;;;0.28;0.28;;;;;;;28.46;42.08;99732.13;7391622;19;20362;-80
2024/04/19 07:35:36;;;;;;;0.50;0.20;;;;;;;28.73;42.09;99734.84;7394069;19;20361;-80
2024/04/19 07:38:03;;;;;;;0.25;0.25;;;;;;;28.36;41.95;99722.03;7390039;19;20038;-80
2024/04/19 07:40:29;;;;;;;0.20;0.20;;;;;;;27.70;42.53;99738.50;7393264;19;20019;-80
2024/04/19 07:42:56;;;;;;;3.20;0.28;;;;;;;27.62;42.36;99739.97;7390463;19;20020;-80
2024/04/19 07:45:25;;;;;;;0.30;0.30;;;;;;;27.41;42.79;99739.75;7394920;19;20011;-80
2024/04/19 07:47:54;;;;;;;0.20;0.20;;;;;;;27.39;42.60;99742.47;7394309;19;20014;-81
2024/04/19 07:50:20;;;;;;;0.17;0.17;;;;;;;27.48;42.94;99758.91;7389486;19;20027;-81
2024/04/19 07:52:47;;;;;;;0.20;0.20;;;;;;;27.76;42.84;99763.97;7390477;19;20070;-80
2024/04/19 07:55:15;;;;;;;0.10;0.10;;;;;;;27.87;42.78;99763.41;7393554;19;20086;-81
2024/04/19 07:57:41;;;;;;;0.52;0.17;;;;;;;27.78;43.08;99761.28;7387497;19;20088;-80
2024/04/19 08:00:16;;;;;;;0.10;0.10;;;;;;;27.93;42.84;99763.88;7389440;19;20565;-80
2024/04/19 08:02:43;;;;;;;0.45;0.45;;;;;;;27.93;42.92;99763.88;7390231;19;20022;-80
2024/04/19 08:05:10;;;;;;;4.68;0.95;;;;;;;28.10;43.20;99763.78;7392902;19;20035;-80
2024/04/19 08:07:36;;;;;;;0.43;0.28;;;;;;;27.99;43.11;99770.09;7389535;19;20022;-81
2024/04/19 08:10:03;;;;;;;0.25;0.25;;;;;;;28.13;42.84;99753.97;7390248;19;20468;-81
2024/04/19 08:12:29;;;;;;;0.47;0.47;;;;;;;27.92;42.95;99759.50;7390000;19;20014;-80
2024/04/19 08:14:55;;;;;;;2.78;0.40;;;;;;;27.48;43.53;99761.78;7392752;19;20424;-80
2024/04/19 08:17:21;;;;;;;1.17;0.47;;;;;;;26.85;43.92;99771.03;7391399;19;20039;-80
2024/04/19 08:19:49;;;;;;;0.47;0.20;;;;;;;26.91;44.53;99774.38;7390069;19;20078;-81
2024/04/19 08:22:16;;;;;;;2.80;0.63;;;;;;;26.77;44.21;99781.78;7392588;19;20015;-80
2024/04/19 08:24:42;;;;;;;0.82;0.20;;;;;;;27.23;44.41;99770.50;7392113;19;20015;-80
2024/04/19 08:27:10;;;;;;;1.75;0.35;;;;;;;27.39;44.05;99782.50;7343562;19;20022;-79
2024/04/19 08:29:36;;;;;;;0.10;0.10;;;;;;;27.24;43.99;99771.25;7385834;19;20010;-79
2024/04/19 08:32:06;;;;;;;0.20;0.20;;;;;;;27.37;44.76;99756.59;7386595;19;20395;-79
2024/04/19 08:34:32;;;;;;;0.30;0.30;;;;;;;27.66;45.15;99768.91;7385328;19;20386;-79
2024/04/19 08:36:58;;;;;;;0.40;0.30;;;;;;;27.90;45.71;99773.66;7390370;19;20022;-79
2024/04/19 08:39:24;;;;;;;0.38;0.30;;;;;;;27.96;45.25;99765.53;7388761;19;20015;-80
2024/04/19 08:41:54;;;;;;;0.10;0.10;;;;;;;28.03;45.57;99776.13;7390998;19;20018;-79
2024/04/19 08:44:21;;;;;;;0.28;0.28;;;;;;;28.05;45.85;99772.66;7391313;19;20026;-79
2024/04/19 08:46:49;;;;;;;0.68;0.57;;;;;;;28.00;45.14;99771.59;7391575;19;20011;-79
2024/04/19 08:49:15;;;;;;;0.68;0.57;;;;;;;27.95;44.67;99789.78;7389151;19;20010;-79
2024/04/19 08:51:42;;;;;;;0.35;0.20;;;;;;;27.90;44.77;99792.94;7387690;19;20043;-79
2024/04/19 08:54:09;;;;;;;0.55;0.45;;;;;;;27.73;45.29;99788.81;7390988;19;20026;-79
2024/04/19 08:56:37;;;;;;;5.57;0.32;;;;;;;27.88;44.78;99782.09;7391551;19;20019;-79
2024/04/19 08:59:04;;;;;;;4.38;0.30;;;;;;;27.73;45.01;99783.09;7387086;19;20345;-79
2024/04/19 09:01:30;;;;;;;0.30;0.10;;;;;;;28.09;44.27;99772.97;7389187;19;20018;-79
2024/04/19 09:03:56;;;;;;;1.27;0.32;;;;;;;28.54;44.48;99778.56;7388699;19;20039;-79
2024/04/19 09:06:27;;;;;;;0.80;0.43;;;;;;;28.73;44.14;99782.81;7389706;19;20492;-79
2024/04/19 09:08:54;;;;;;;0.15;0.15;;;;;;;28.32;44.06;99779.03;7389950;19;20026;-79
2024/04/19 09:11:21;;;;;;;0.57;0.45;;;;;;;28.21;43.72;99785.34;7387390;19;20022;-79
2024/04/19 09:13:47;;;;;;;1.10;0.40;;;;;;;28.72;43.98;99769.88;7389377;19;20021;-79
2024/04/19 09:16:13;;;;;;;11.85;0.73;;;;;;;28.52;44.07;99787.03;7388575;19;20406;-79
2024/04/19 09:18:39;;;;;;;1.85;0.30;;;;;;;28.29;44.37;99792.44;7387294;19;20022;-79
2024/04/19 09:21:07;;;;;;;4.80;0.55;;;;;;;28.38;43.97;99774.50;7390390;19;20017;-79
2024/04/19 09:23:33;;;;;;;4.65;0.57;;;;;;;28.32;43.64;99791.25;7388189;19;20031;-79
2024/04/19 09:26:02;;;;;;;1.33;0.35;;;;;;;28.00;43.53;99780.19;7388826;19;20024;-79
2024/04/19 09:28:29;;;;;;;3.63;0.60;;;;;;;27.87;43.85;99797.75;7384388;19;20085;-79
2024/04/19 09:30:56;;;;;;;5.57;0.30;;;;;;;28.12;43.85;99806.88;7387059;19;20327;-79
2024/04/19 09:33:24;;;;;;;0.10;0.10;;;;;;;28.18;43.52;99803.72;7388091;19;20042;-79
2024/04/19 09:35:51;;;;;;;0.17;0.17;;;;;;;28.27;43.18;99788.66;7387927;19;20014;-79
2024/04/19 09:38:21;;;;;;;0.85;0.40;;;;;;;28.68;43.52;99803.94;7387259;19;20015;-78
2024/04/19 09:40:48;;;;;;;1.27;0.38;;;;;;;28.49;43.76;99805.44;7388636;19;20035;-79
2024/04/19 09:43:17;;;;;;;3.58;0.65;;;;;;;28.78;43.62;99801.84;7392732;19;20026;-79
2024/04/19 09:45:43;;;;;;;0.30;0.30;;;;;;;28.54;43.17;99800.78;7388725;19;20018;-79
2024/04/19 09:48:10;;;;;;;0.55;0.45;;;;;;;28.52;43.16;99812.09;7392204;19;20646;-79
2024/04/19 09:50:38;;;;;;;0.75;0.10;;;;;;;28.42;42.51;99806.34;7388258;19;20105;-79
2024/04/19 09:53:12;;;;;;;1.13;0.25;;;;;;;28.61;42.04;99807.75;7388993;19;20453;-79
2024/04/19 09:56:15;;;;;;;0.30;0.17;;;;;;;28.23;41.75;99812.03;7393328;19;20022;-79
2024/04/19 09:58:44;;;;;;;2.50;0.32;;;;;;;28.05;41.70;99824.94;7387412;19;20010;-79
2024/04/19 10:01:10;;;;;;;0.10;0.00;;;;;;;28.23;41.87;99819.88;7387820;19;20015;-79
2024/04/19 10:03:37;;;;;;;0.32;0.28;;;;;;;28.42;41.18;99823.53;7386396;19;20074;-79
2024/04/19 10:06:05;;;;;;;0.10;0.10;;;;;;;29.10;40.83;99809.94;7387376;19;20014;-79
2024/04/19 10:08:31;;;;;;;0.10;0.00;;;;;;;29.10;40.44;99818.56;7386130;19;20014;-79
2024/04/19 10:10:58;;;;;;;0.32;0.20;;;;;;;29.18;40.65;99833.50;7386904;19;20044;-79
2024/04/19 10:13:30;;;;;;;0.73;0.38;;;;;;;29.36;40.97;99840.56;7387732;19;20330;-79
2024/04/19 10:15:59;;;;;;;0.98;0.38;;;;;;;29.74;40.78;99843.34;7385561;19;20023;-79
2024/04/19 10:18:26;;;;;;;1.10;0.35;;;;;;;29.87;40.83;99851.44;7388710;19;20027;-79
2024/04/19 10:20:53;;;;;;;2.28;0.95;;;;;;;29.93;40.34;99849.00;7387133;19;20487;-79
2024/04/19 10:23:19;;;;;;;0.10;0.10;;;;;;;30.18;39.95;99845.72;7387165;19;20477;-79
2024/04/19 10:25:48;;;;;;;0.10;0.10;;;;;;;29.98;40.44;99847.94;7387900;19;20023;-79
2024/04/19 10:28:17;;;;;;;0.47;0.17;;;;;;;29.70;39.68;99848.78;7388110;19;20483;-80
2024/04/19 10:30:44;;;;;;;0.52;0.13;;;;;;;29.82;39.68;99852.53;7384250;19;20374;-79
2024/04/19 10:33:10;;;;;;;0.10;0.10;;;;;;;29.85;38.74;99850.56;7385401;19;20466;-79
2024/04/19 10:35:37;;;;;;;5.38;0.30;;;;;;;29.91;38.92;99837.38;7386819;19;20086;-79
2024/04/19 10:38:04;;;;;;;0.20;0.08;;;;;;;29.39;38.36;99833.59;7389178;19;20022;-79
2024/04/19 10:40:30;;;;;;;0.15;0.13;;;;;;;29.05;38.76;99843.31;7388193;19;20085;-79
2024/04/19 10:43:04;;;;;;;1.00;0.50;;;;;;;28.97;38.80;99859.94;7386928;19;20484;-79
2024/04/19 10:45:30;;;;;;;0.10;0.00;;;;;;;28.95;38.96;99859.78;7385241;19;20089;-79
2024/04/19 10:47:57;;;;;;;0.17;0.10;;;;;;;28.78;39.28;99854.22;7388172;19;20422;-79
2024/04/19 10:50:25;;;;;;;0.85;0.22;;;;;;;28.98;39.76;99860.66;7396308;19;20043;-79
2024/04/19 10:52:51;;;;;;;0.55;0.30;;;;;;;28.78;38.85;99862.06;7394321;19;20018;-79
2024/04/19 10:55:18;;;;;;;7.97;1.65;;;;;;;29.11;38.84;99865.94;7392617;19;20019;-79
2024/04/19 10:57:44;;;;;;;3.10;0.65;;;;;;;29.16;38.43;99870.66;7392307;19;20048;-79
2024/04/19 11:00:12;;;;;;;3.00;0.40;;;;;;;29.56;38.55;99867.13;7392024;19;20484;-79
2024/04/19 11:02:41;;;;;;;2.75;0.10;;;;;;;29.73;38.26;99878.38;7398025;19;20078;-79
2024/04/19 11:05:09;;;;;;;0.25;0.15;;;;;;;29.66;38.45;99882.94;7398064;19;20022;-79
2024/04/19 11:07:36;;;;;;;0.40;0.40;;;;;;;29.77;38.21;99885.19;7391668;19;20381;-80
2024/04/19 11:10:04;;;;;;;0.13;0.10;;;;;;;29.51;38.29;99883.28;7390899;19;20043;-79
2024/04/19 11:12:30;;;;;;;2.17;0.70;;;;;;;29.90;36.98;99889.69;7392268;19;20018;-78
2024/04/19 11:15:00;;;;;;;7.78;0.60;;;;;;;30.30;36.45;99880.28;7393091;19;20019;-79
2024/04/19 11:17:26;;;;;;;1.30;0.60;;;;;;;30.63;35.89;99895.50;7396789;19;20025;-79
2024/04/19 11:19:52;;;;;;;2.80;0.68;;;;;;;30.58;36.14;99897.34;7393077;19;20030;-79
2024/04/19 11:22:19;;;;;;;4.80;0.38;;;;;;;30.41;35.68;99891.13;7396138;19;20014;-80
2024/04/19 11:24:45;;;;;;;0.10;0.10;;;;;;;31.12;35.67;99893.81;7391712;19;20480;-79
2024/04/19 11:27:12;;;;;;;0.80;0.30;;;;;;;31.09;36.31;99895.03;7391561;19;20006;-80
2024/04/19 11:29:38;;;;;;;0.00;0.00;;;;;;;30.87;35.74;99902.19;7390625;19;20039;-80
2024/04/19 11:32:07;;;;;;;9.13;0.70;;;;;;;30.70;35.03;99903.94;7390128;19;20487;-80
2024/04/19 11:34:34;;;;;;;6.82;0.63;;;;;;;29.98;36.15;99902.50;7390525;19;20026;-80
2024/04/19 11:37:05;;;;;;;0.68;0.22;;;;;;;30.01;36.04;99911.25;7392299;19;20465;-80